sensor_id;sensor_type;location;lat;lon;timestamp;P1;durP1;ratioP1;P2;durP2;ratioP2
3085;SDS011;52812;48.960;9.108;2023-02-20T00:01:00;8.57;;;3.30;;
3085;SDS011;52812;48.960;9.108;2023-02-20T00:03:27;9.33;;;3.60;;
3085;SDS011;52812;48.960;9.108;2023-02-20T00:05:52;6.80;;;3.37;;
3085;SDS011;52812;48.960;9.108;2023-02-20T00:08:18;7.80;;;3.53;;
3085;SDS011;52812;48.960;9.108;2023-02-20T00:10:43;6.47;;;3.60;;
3085;SDS011;52812;48.960;9.108;2023-02-20T00:13:09;6.30;;;3.80;;
3085;SDS011;52812;48.960;9.108;2023-02-20T00:15:35;4.77;;;3.40;;
3085;SDS011;52812;48.960;9.108;2023-02-20T00:18:00;6.20;;;4.10;;
3085;SDS011;52812;48.960;9.108;2023-02-20T00:20:26;6.00;;;3.10;;
3085;SDS011;52812;48.960;9.108;2023-02-20T00:22:54;8.33;;;3.90;;
3085;SDS011;52812;48.960;9.108;2023-02-20T00:25:20;5.83;;;3.50;;
3085;SDS011;52812;48.960;9.108;2023-02-20T00:27:45;6.33;;;3.57;;
3085;SDS011;52812;48.960;9.108;2023-02-20T00:30:13;6.03;;;3.60;;
3085;SDS011;52812;48.960;9.108;2023-02-20T00:32:41;6.83;;;3.70;;
3085;SDS011;52812;48.960;9.108;2023-02-20T00:35:08;6.33;;;3.27;;
3085;SDS011;52812;48.960;9.108;2023-02-20T00:37:37;7.23;;;3.90;;
3085;SDS011;52812;48.960;9.108;2023-02-20T00:40:03;6.30;;;3.70;;
3085;SDS011;52812;48.960;9.108;2023-02-20T00:42:29;7.23;;;3.47;;
3085;SDS011;52812;48.960;9.108;2023-02-20T00:44:54;7.80;;;3.23;;
3085;SDS011;52812;48.960;9.108;2023-02-20T00:47:20;4.80;;;3.43;;
3085;SDS011;52812;48.960;9.108;2023-02-20T00:49:45;6.80;;;3.77;;
3085;SDS011;52812;48.960;9.108;2023-02-20T00:52:11;7.93;;;3.90;;
3085;SDS011;52812;48.960;9.108;2023-02-20T00:54:36;4.60;;;3.67;;
3085;SDS011;52812;48.960;9.108;2023-02-20T00:57:02;10.80;;;3.90;;
3085;SDS011;52812;48.960;9.108;2023-02-20T00:59:28;5.60;;;3.60;;
3085;SDS011;52812;48.960;9.108;2023-02-20T01:01:53;7.27;;;3.73;;
3085;SDS011;52812;48.960;9.108;2023-02-20T01:04:19;6.77;;;4.30;;
3085;SDS011;52812;48.960;9.108;2023-02-20T01:06:44;7.70;;;3.67;;
3085;SDS011;52812;48.960;9.108;2023-02-20T01:09:10;7.30;;;3.80;;
3085;SDS011;52812;48.960;9.108;2023-02-20T01:11:36;7.80;;;3.70;;
3085;SDS011;52812;48.960;9.108;2023-02-20T01:14:02;6.03;;;3.67;;
3085;SDS011;52812;48.960;9.108;2023-02-20T01:16:28;5.73;;;3.50;;
3085;SDS011;52812;48.960;9.108;2023-02-20T01:18:53;6.13;;;3.47;;
3085;SDS011;52812;48.960;9.108;2023-02-20T01:21:19;4.87;;;3.43;;
3085;SDS011;52812;48.960;9.108;2023-02-20T01:23:44;5.43;;;3.90;;
3085;SDS011;52812;48.960;9.108;2023-02-20T01:26:10;5.67;;;3.57;;
3085;SDS011;52812;48.960;9.108;2023-02-20T01:28:35;8.13;;;3.97;;
3085;SDS011;52812;48.960;9.108;2023-02-20T01:31:01;6.30;;;3.87;;
3085;SDS011;52812;48.960;9.108;2023-02-20T01:33:26;9.73;;;4.13;;
3085;SDS011;52812;48.960;9.108;2023-02-20T01:35:52;5.23;;;3.27;;
3085;SDS011;52812;48.960;9.108;2023-02-20T01:38:17;8.33;;;4.03;;
3085;SDS011;52812;48.960;9.108;2023-02-20T01:40:47;5.80;;;3.67;;
3085;SDS011;52812;48.960;9.108;2023-02-20T01:43:14;8.73;;;3.83;;
3085;SDS011;52812;48.960;9.108;2023-02-20T01:45:40;7.83;;;3.90;;
3085;SDS011;52812;48.960;9.108;2023-02-20T01:48:06;6.27;;;3.83;;
3085;SDS011;52812;48.960;9.108;2023-02-20T01:50:49;9.30;;;4.40;;
3085;SDS011;52812;48.960;9.108;2023-02-20T01:53:21;10.20;;;3.73;;
3085;SDS011;52812;48.960;9.108;2023-02-20T01:55:56;4.37;;;3.57;;
3085;SDS011;52812;48.960;9.108;2023-02-20T02:01:05;5.80;;;3.70;;
3085;SDS011;52812;48.960;9.108;2023-02-20T02:03:32;7.27;;;3.50;;
3085;SDS011;52812;48.960;9.108;2023-02-20T02:06:02;6.43;;;4.10;;
3085;SDS011;52812;48.960;9.108;2023-02-20T02:08:29;8.43;;;3.60;;
3085;SDS011;52812;48.960;9.108;2023-02-20T02:10:58;7.07;;;3.97;;
3085;SDS011;52812;48.960;9.108;2023-02-20T02:13:29;6.50;;;4.10;;
3085;SDS011;52812;48.960;9.108;2023-02-20T02:18:52;9.13;;;3.90;;
3085;SDS011;52812;48.960;9.108;2023-02-20T02:27:33;7.33;;;4.77;;
3085;SDS011;52812;48.960;9.108;2023-02-20T02:30:25;7.73;;;3.53;;
3085;SDS011;52812;48.960;9.108;2023-02-20T02:39:47;5.60;;;3.43;;
3085;SDS011;52812;48.960;9.108;2023-02-20T02:47:21;7.03;;;3.80;;
3085;SDS011;52812;48.960;9.108;2023-02-20T02:50:07;8.30;;;3.90;;
3085;SDS011;52812;48.960;9.108;2023-02-20T02:52:43;5.93;;;4.10;;
3085;SDS011;52812;48.960;9.108;2023-02-20T02:55:20;7.27;;;3.97;;
3085;SDS011;52812;48.960;9.108;2023-02-20T02:57:48;7.43;;;3.90;;
3085;SDS011;52812;48.960;9.108;2023-02-20T03:00:28;6.00;;;3.80;;
3085;SDS011;52812;48.960;9.108;2023-02-20T03:03:17;7.33;;;3.70;;
3085;SDS011;52812;48.960;9.108;2023-02-20T03:06:01;8.77;;;4.17;;
3085;SDS011;52812;48.960;9.108;2023-02-20T03:08:44;7.13;;;4.00;;
3085;SDS011;52812;48.960;9.108;2023-02-20T03:11:18;6.47;;;4.10;;
3085;SDS011;52812;48.960;9.108;2023-02-20T03:14:07;7.13;;;3.90;;
3085;SDS011;52812;48.960;9.108;2023-02-20T03:19:58;7.27;;;4.47;;
3085;SDS011;52812;48.960;9.108;2023-02-20T03:25:31;8.03;;;4.90;;
3085;SDS011;52812;48.960;9.108;2023-02-20T03:28:02;10.57;;;6.13;;
3085;SDS011;52812;48.960;9.108;2023-02-20T03:30:38;10.13;;;6.60;;
3085;SDS011;52812;48.960;9.108;2023-02-20T03:33:24;10.37;;;6.30;;
3085;SDS011;52812;48.960;9.108;2023-02-20T03:36:11;7.17;;;5.10;;
3085;SDS011;52812;48.960;9.108;2023-02-20T03:39:00;8.70;;;4.43;;
3085;SDS011;52812;48.960;9.108;2023-02-20T03:41:47;9.80;;;4.33;;
3085;SDS011;52812;48.960;9.108;2023-02-20T03:44:32;6.60;;;4.13;;
3085;SDS011;52812;48.960;9.108;2023-02-20T03:47:00;7.30;;;4.50;;
3085;SDS011;52812;48.960;9.108;2023-02-20T03:49:30;9.80;;;4.50;;
3085;SDS011;52812;48.960;9.108;2023-02-20T03:51:59;7.80;;;4.13;;
3085;SDS011;52812;48.960;9.108;2023-02-20T03:54:25;7.43;;;4.07;;
3085;SDS011;52812;48.960;9.108;2023-02-20T03:56:54;8.00;;;4.10;;
3085;SDS011;52812;48.960;9.108;2023-02-20T03:59:37;6.87;;;4.63;;
3085;SDS011;52812;48.960;9.108;2023-02-20T04:02:10;5.30;;;3.67;;
3085;SDS011;52812;48.960;9.108;2023-02-20T04:04:44;8.90;;;6.57;;
3085;SDS011;52812;48.960;9.108;2023-02-20T04:07:14;12.80;;;9.07;;
3085;SDS011;52812;48.960;9.108;2023-02-20T04:09:44;9.30;;;5.73;;
3085;SDS011;52812;48.960;9.108;2023-02-20T04:14:43;13.10;;;5.77;;
3085;SDS011;52812;48.960;9.108;2023-02-20T04:17:11;10.17;;;5.80;;
3085;SDS011;52812;48.960;9.108;2023-02-20T04:19:42;10.43;;;6.50;;
3085;SDS011;52812;48.960;9.108;2023-02-20T04:22:10;10.00;;;7.00;;
3085;SDS011;52812;48.960;9.108;2023-02-20T04:27:18;8.97;;;5.00;;
3085;SDS011;52812;48.960;9.108;2023-02-20T04:29:44;10.30;;;5.67;;
3085;SDS011;52812;48.960;9.108;2023-02-20T04:32:10;7.90;;;4.90;;
3085;SDS011;52812;48.960;9.108;2023-02-20T04:34:35;6.90;;;4.73;;
3085;SDS011;52812;48.960;9.108;2023-02-20T04:37:11;8.63;;;4.37;;
3085;SDS011;52812;48.960;9.108;2023-02-20T04:39:39;14.80;;;6.13;;
3085;SDS011;52812;48.960;9.108;2023-02-20T04:42:04;9.77;;;4.60;;
3085;SDS011;52812;48.960;9.108;2023-02-20T04:44:30;6.13;;;4.67;;
3085;SDS011;52812;48.960;9.108;2023-02-20T04:46:57;9.03;;;5.67;;
3085;SDS011;52812;48.960;9.108;2023-02-20T04:49:25;9.77;;;4.80;;
3085;SDS011;52812;48.960;9.108;2023-02-20T04:51:50;8.87;;;4.97;;
3085;SDS011;52812;48.960;9.108;2023-02-20T04:54:16;7.33;;;4.63;;
3085;SDS011;52812;48.960;9.108;2023-02-20T04:56:41;12.90;;;5.27;;
3085;SDS011;52812;48.960;9.108;2023-02-20T04:59:07;7.87;;;5.07;;
3085;SDS011;52812;48.960;9.108;2023-02-20T05:01:33;11.50;;;5.27;;
3085;SDS011;52812;48.960;9.108;2023-02-20T05:03:58;11.13;;;5.27;;
3085;SDS011;52812;48.960;9.108;2023-02-20T05:06:24;7.30;;;5.07;;
3085;SDS011;52812;48.960;9.108;2023-02-20T05:08:49;8.57;;;5.03;;
3085;SDS011;52812;48.960;9.108;2023-02-20T05:11:15;8.87;;;4.70;;
3085;SDS011;52812;48.960;9.108;2023-02-20T05:13:41;11.50;;;4.80;;
3085;SDS011;52812;48.960;9.108;2023-02-20T05:16:06;7.60;;;4.43;;
3085;SDS011;52812;48.960;9.108;2023-02-20T05:18:32;8.10;;;4.50;;
3085;SDS011;52812;48.960;9.108;2023-02-20T05:20:58;6.13;;;4.23;;
3085;SDS011;52812;48.960;9.108;2023-02-20T05:23:44;7.07;;;4.50;;
3085;SDS011;52812;48.960;9.108;2023-02-20T05:26:11;8.40;;;4.17;;
3085;SDS011;52812;48.960;9.108;2023-02-20T05:28:40;9.90;;;4.70;;
3085;SDS011;52812;48.960;9.108;2023-02-20T05:31:06;10.00;;;5.47;;
3085;SDS011;52812;48.960;9.108;2023-02-20T05:33:32;6.03;;;4.67;;
3085;SDS011;52812;48.960;9.108;2023-02-20T05:35:58;7.17;;;4.50;;
3085;SDS011;52812;48.960;9.108;2023-02-20T05:38:24;9.07;;;5.27;;
3085;SDS011;52812;48.960;9.108;2023-02-20T05:40:49;9.70;;;4.50;;
3085;SDS011;52812;48.960;9.108;2023-02-20T05:43:15;10.57;;;4.80;;
3085;SDS011;52812;48.960;9.108;2023-02-20T05:45:41;8.77;;;4.57;;
3085;SDS011;52812;48.960;9.108;2023-02-20T05:48:07;9.57;;;5.20;;
3085;SDS011;52812;48.960;9.108;2023-02-20T05:50:32;8.67;;;4.80;;
3085;SDS011;52812;48.960;9.108;2023-02-20T05:52:58;9.67;;;5.17;;
3085;SDS011;52812;48.960;9.108;2023-02-20T05:55:23;6.57;;;4.40;;
3085;SDS011;52812;48.960;9.108;2023-02-20T05:57:49;8.30;;;4.73;;
3085;SDS011;52812;48.960;9.108;2023-02-20T06:00:15;9.30;;;5.30;;
3085;SDS011;52812;48.960;9.108;2023-02-20T06:02:40;6.90;;;4.37;;
3085;SDS011;52812;48.960;9.108;2023-02-20T06:05:06;7.03;;;4.60;;
3085;SDS011;52812;48.960;9.108;2023-02-20T06:07:32;9.10;;;5.13;;
3085;SDS011;52812;48.960;9.108;2023-02-20T06:09:59;13.30;;;6.40;;
3085;SDS011;52812;48.960;9.108;2023-02-20T06:12:24;11.87;;;5.40;;
3085;SDS011;52812;48.960;9.108;2023-02-20T06:14:50;12.80;;;5.87;;
3085;SDS011;52812;48.960;9.108;2023-02-20T06:17:15;9.97;;;5.97;;
3085;SDS011;52812;48.960;9.108;2023-02-20T06:19:41;9.60;;;5.90;;
3085;SDS011;52812;48.960;9.108;2023-02-20T06:22:06;9.23;;;5.20;;
3085;SDS011;52812;48.960;9.108;2023-02-20T06:24:32;9.43;;;5.47;;
3085;SDS011;52812;48.960;9.108;2023-02-20T06:26:57;11.17;;;5.03;;
3085;SDS011;52812;48.960;9.108;2023-02-20T06:29:23;8.03;;;5.30;;
3085;SDS011;52812;48.960;9.108;2023-02-20T06:31:49;8.93;;;5.40;;
3085;SDS011;52812;48.960;9.108;2023-02-20T06:34:14;9.67;;;5.70;;
3085;SDS011;52812;48.960;9.108;2023-02-20T06:36:41;12.03;;;5.60;;
3085;SDS011;52812;48.960;9.108;2023-02-20T06:39:07;9.20;;;5.10;;
3085;SDS011;52812;48.960;9.108;2023-02-20T06:41:34;11.60;;;5.43;;
3085;SDS011;52812;48.960;9.108;2023-02-20T06:44:00;9.20;;;5.23;;
3085;SDS011;52812;48.960;9.108;2023-02-20T06:46:26;8.93;;;5.10;;
3085;SDS011;52812;48.960;9.108;2023-02-20T06:48:55;8.20;;;4.90;;
3085;SDS011;52812;48.960;9.108;2023-02-20T06:51:24;6.17;;;4.37;;
3085;SDS011;52812;48.960;9.108;2023-02-20T06:53:55;6.63;;;4.13;;
3085;SDS011;52812;48.960;9.108;2023-02-20T06:56:23;7.67;;;4.70;;
3085;SDS011;52812;48.960;9.108;2023-02-20T06:58:53;10.13;;;5.30;;
3085;SDS011;52812;48.960;9.108;2023-02-20T07:01:20;8.83;;;4.87;;
3085;SDS011;52812;48.960;9.108;2023-02-20T07:03:48;8.93;;;5.27;;
3085;SDS011;52812;48.960;9.108;2023-02-20T07:06:14;5.43;;;3.90;;
3085;SDS011;52812;48.960;9.108;2023-02-20T07:08:41;5.33;;;3.83;;
3085;SDS011;52812;48.960;9.108;2023-02-20T07:11:06;9.00;;;4.67;;
3085;SDS011;52812;48.960;9.108;2023-02-20T07:13:32;6.93;;;5.00;;
3085;SDS011;52812;48.960;9.108;2023-02-20T07:15:57;9.83;;;5.00;;
3085;SDS011;52812;48.960;9.108;2023-02-20T07:18:23;10.57;;;4.70;;
3085;SDS011;52812;48.960;9.108;2023-02-20T07:20:51;9.23;;;5.80;;
3085;SDS011;52812;48.960;9.108;2023-02-20T07:23:17;9.00;;;5.37;;
3085;SDS011;52812;48.960;9.108;2023-02-20T07:25:43;9.07;;;5.23;;
3085;SDS011;52812;48.960;9.108;2023-02-20T07:28:09;11.37;;;5.87;;
3085;SDS011;52812;48.960;9.108;2023-02-20T07:30:34;10.60;;;5.70;;
3085;SDS011;52812;48.960;9.108;2023-02-20T07:33:00;8.27;;;4.90;;
3085;SDS011;52812;48.960;9.108;2023-02-20T07:35:26;7.60;;;5.00;;
3085;SDS011;52812;48.960;9.108;2023-02-20T07:37:51;8.70;;;4.87;;
3085;SDS011;52812;48.960;9.108;2023-02-20T07:40:17;9.20;;;5.37;;
3085;SDS011;52812;48.960;9.108;2023-02-20T07:42:42;7.33;;;4.87;;
3085;SDS011;52812;48.960;9.108;2023-02-20T07:45:08;7.10;;;5.10;;
3085;SDS011;52812;48.960;9.108;2023-02-20T07:47:35;7.10;;;4.80;;
3085;SDS011;52812;48.960;9.108;2023-02-20T07:50:00;7.00;;;5.00;;
3085;SDS011;52812;48.960;9.108;2023-02-20T07:52:26;8.40;;;4.83;;
3085;SDS011;52812;48.960;9.108;2023-02-20T07:54:52;7.40;;;4.50;;
3085;SDS011;52812;48.960;9.108;2023-02-20T07:57:17;6.13;;;4.70;;
3085;SDS011;52812;48.960;9.108;2023-02-20T07:59:43;7.80;;;4.90;;
3085;SDS011;52812;48.960;9.108;2023-02-20T08:02:08;8.37;;;4.47;;
3085;SDS011;52812;48.960;9.108;2023-02-20T08:04:34;8.77;;;4.77;;
3085;SDS011;52812;48.960;9.108;2023-02-20T08:06:59;8.83;;;4.90;;
3085;SDS011;52812;48.960;9.108;2023-02-20T08:09:25;5.80;;;4.80;;
3085;SDS011;52812;48.960;9.108;2023-02-20T08:11:50;6.87;;;5.23;;
3085;SDS011;52812;48.960;9.108;2023-02-20T08:14:16;8.80;;;4.70;;
3085;SDS011;52812;48.960;9.108;2023-02-20T08:16:42;7.33;;;4.17;;
3085;SDS011;52812;48.960;9.108;2023-02-20T08:19:07;6.07;;;3.67;;
3085;SDS011;52812;48.960;9.108;2023-02-20T08:21:33;6.70;;;3.70;;
3085;SDS011;52812;48.960;9.108;2023-02-20T08:23:58;4.73;;;3.97;;
3085;SDS011;52812;48.960;9.108;2023-02-20T08:26:24;6.17;;;3.70;;
3085;SDS011;52812;48.960;9.108;2023-02-20T08:28:50;6.90;;;3.83;;
3085;SDS011;52812;48.960;9.108;2023-02-20T08:31:16;6.97;;;3.97;;
3085;SDS011;52812;48.960;9.108;2023-02-20T08:33:42;5.87;;;3.80;;
3085;SDS011;52812;48.960;9.108;2023-02-20T08:36:08;5.60;;;4.07;;
3085;SDS011;52812;48.960;9.108;2023-02-20T08:38:35;7.30;;;4.20;;
3085;SDS011;52812;48.960;9.108;2023-02-20T08:41:06;9.27;;;4.03;;
3085;SDS011;52812;48.960;9.108;2023-02-20T08:43:34;7.10;;;4.20;;
3085;SDS011;52812;48.960;9.108;2023-02-20T08:45:59;6.17;;;3.77;;
3085;SDS011;52812;48.960;9.108;2023-02-20T08:48:25;7.60;;;4.00;;
3085;SDS011;52812;48.960;9.108;2023-02-20T08:50:51;6.10;;;3.30;;
3085;SDS011;52812;48.960;9.108;2023-02-20T08:53:17;8.23;;;4.10;;
3085;SDS011;52812;48.960;9.108;2023-02-20T08:55:43;4.97;;;3.23;;
3085;SDS011;52812;48.960;9.108;2023-02-20T08:58:08;7.23;;;3.70;;
3085;SDS011;52812;48.960;9.108;2023-02-20T09:00:34;6.80;;;3.30;;
3085;SDS011;52812;48.960;9.108;2023-02-20T09:03:00;5.40;;;3.43;;
3085;SDS011;52812;48.960;9.108;2023-02-20T09:05:26;6.53;;;3.53;;
3085;SDS011;52812;48.960;9.108;2023-02-20T09:07:51;7.43;;;3.50;;
3085;SDS011;52812;48.960;9.108;2023-02-20T09:10:17;6.30;;;3.07;;
3085;SDS011;52812;48.960;9.108;2023-02-20T09:12:44;6.10;;;3.20;;
3085;SDS011;52812;48.960;9.108;2023-02-20T09:15:10;6.93;;;3.40;;
3085;SDS011;52812;48.960;9.108;2023-02-20T09:17:36;6.20;;;3.13;;
3085;SDS011;52812;48.960;9.108;2023-02-20T09:20:02;8.73;;;2.87;;
3085;SDS011;52812;48.960;9.108;2023-02-20T09:22:29;5.27;;;3.20;;
3085;SDS011;52812;48.960;9.108;2023-02-20T09:24:55;5.33;;;2.93;;
3085;SDS011;52812;48.960;9.108;2023-02-20T09:27:21;6.97;;;3.37;;
3085;SDS011;52812;48.960;9.108;2023-02-20T09:29:47;4.90;;;2.97;;
3085;SDS011;52812;48.960;9.108;2023-02-20T09:32:12;6.40;;;2.90;;
3085;SDS011;52812;48.960;9.108;2023-02-20T09:34:38;4.23;;;2.60;;
3085;SDS011;52812;48.960;9.108;2023-02-20T09:37:04;5.30;;;2.83;;
3085;SDS011;52812;48.960;9.108;2023-02-20T09:39:30;5.70;;;3.17;;
3085;SDS011;52812;48.960;9.108;2023-02-20T09:42:07;3.70;;;2.87;;
3085;SDS011;52812;48.960;9.108;2023-02-20T09:44:42;7.40;;;3.00;;
3085;SDS011;52812;48.960;9.108;2023-02-20T09:48:22;4.13;;;3.10;;
3085;SDS011;52812;48.960;9.108;2023-02-20T09:50:45;6.00;;;3.07;;
3085;SDS011;52812;48.960;9.108;2023-02-20T09:53:23;4.33;;;3.20;;
3085;SDS011;52812;48.960;9.108;2023-02-20T09:56:05;5.47;;;3.13;;
3085;SDS011;52812;48.960;9.108;2023-02-20T09:58:44;5.83;;;3.33;;
3085;SDS011;52812;48.960;9.108;2023-02-20T10:01:18;7.33;;;3.00;;
3085;SDS011;52812;48.960;9.108;2023-02-20T10:03:50;6.70;;;3.50;;
3085;SDS011;52812;48.960;9.108;2023-02-20T10:06:19;6.23;;;2.93;;
3085;SDS011;52812;48.960;9.108;2023-02-20T10:08:47;4.90;;;3.00;;
3085;SDS011;52812;48.960;9.108;2023-02-20T10:11:23;7.17;;;3.33;;
3085;SDS011;52812;48.960;9.108;2023-02-20T10:14:13;5.53;;;2.87;;
3085;SDS011;52812;48.960;9.108;2023-02-20T10:22:17;5.60;;;2.90;;
3085;SDS011;52812;48.960;9.108;2023-02-20T10:30:18;9.20;;;2.70;;
3085;SDS011;52812;48.960;9.108;2023-02-20T10:32:53;4.87;;;2.60;;
3085;SDS011;52812;48.960;9.108;2023-02-20T10:35:31;4.37;;;2.47;;
3085;SDS011;52812;48.960;9.108;2023-02-20T10:38:03;4.40;;;2.40;;
3085;SDS011;52812;48.960;9.108;2023-02-20T10:40:33;5.37;;;2.30;;
3085;SDS011;52812;48.960;9.108;2023-02-20T10:43:18;5.50;;;2.27;;
3085;SDS011;52812;48.960;9.108;2023-02-20T10:48:42;2.83;;;2.10;;
3085;SDS011;52812;48.960;9.108;2023-02-20T10:51:20;5.90;;;2.10;;
3085;SDS011;52812;48.960;9.108;2023-02-20T10:53:57;6.17;;;2.30;;
3085;SDS011;52812;48.960;9.108;2023-02-20T10:59:20;2.70;;;2.23;;
3085;SDS011;52812;48.960;9.108;2023-02-20T11:01:51;2.73;;;2.20;;
3085;SDS011;52812;48.960;9.108;2023-02-20T11:04:24;6.17;;;2.20;;
3085;SDS011;52812;48.960;9.108;2023-02-20T11:07:01;2.17;;;1.87;;
3085;SDS011;52812;48.960;9.108;2023-02-20T11:09:31;7.37;;;2.10;;
3085;SDS011;52812;48.960;9.108;2023-02-20T11:11:56;4.73;;;1.93;;
3085;SDS011;52812;48.960;9.108;2023-02-20T11:14:23;4.10;;;2.30;;
3085;SDS011;52812;48.960;9.108;2023-02-20T11:16:59;3.73;;;2.17;;
3085;SDS011;52812;48.960;9.108;2023-02-20T11:19:52;3.50;;;2.17;;
3085;SDS011;52812;48.960;9.108;2023-02-20T11:22:17;5.50;;;2.30;;
3085;SDS011;52812;48.960;9.108;2023-02-20T11:25:18;4.00;;;2.30;;
3085;SDS011;52812;48.960;9.108;2023-02-20T11:27:46;3.53;;;2.20;;
3085;SDS011;52812;48.960;9.108;2023-02-20T11:33:16;3.40;;;2.00;;
3085;SDS011;52812;48.960;9.108;2023-02-20T11:35:44;5.53;;;2.10;;
3085;SDS011;52812;48.960;9.108;2023-02-20T11:43:30;5.17;;;2.47;;
3085;SDS011;52812;48.960;9.108;2023-02-20T11:46:09;4.93;;;2.40;;
3085;SDS011;52812;48.960;9.108;2023-02-20T11:51:50;6.13;;;2.20;;
3085;SDS011;52812;48.960;9.108;2023-02-20T11:54:25;3.03;;;2.23;;
3085;SDS011;52812;48.960;9.108;2023-02-20T11:59:38;3.90;;;2.37;;
3085;SDS011;52812;48.960;9.108;2023-02-20T12:04:41;5.70;;;2.50;;
3085;SDS011;52812;48.960;9.108;2023-02-20T12:07:28;3.37;;;2.43;;
3085;SDS011;52812;48.960;9.108;2023-02-20T12:10:01;3.77;;;2.40;;
3085;SDS011;52812;48.960;9.108;2023-02-20T12:12:38;3.33;;;2.10;;
3085;SDS011;52812;48.960;9.108;2023-02-20T12:15:10;4.17;;;2.23;;
3085;SDS011;52812;48.960;9.108;2023-02-20T12:17:41;5.20;;;1.80;;
3085;SDS011;52812;48.960;9.108;2023-02-20T12:20:24;3.00;;;2.03;;
3085;SDS011;52812;48.960;9.108;2023-02-20T12:26:14;3.93;;;2.13;;
3085;SDS011;52812;48.960;9.108;2023-02-20T12:28:53;4.50;;;2.30;;
3085;SDS011;52812;48.960;9.108;2023-02-20T12:45:34;5.20;;;1.70;;
3085;SDS011;52812;48.960;9.108;2023-02-20T12:54:28;2.03;;;1.80;;
3085;SDS011;52812;48.960;9.108;2023-02-20T12:57:12;1.70;;;1.50;;
3085;SDS011;52812;48.960;9.108;2023-02-20T12:59:56;2.70;;;1.53;;
3085;SDS011;52812;48.960;9.108;2023-02-20T13:02:26;1.80;;;1.43;;
3085;SDS011;52812;48.960;9.108;2023-02-20T13:05:19;3.67;;;1.60;;
3085;SDS011;52812;48.960;9.108;2023-02-20T13:08:00;2.60;;;1.87;;
3085;SDS011;52812;48.960;9.108;2023-02-20T13:10:32;1.70;;;1.40;;
3085;SDS011;52812;48.960;9.108;2023-02-20T13:13:07;4.90;;;2.00;;
3085;SDS011;52812;48.960;9.108;2023-02-20T13:15:37;7.93;;;1.90;;
3085;SDS011;52812;48.960;9.108;2023-02-20T13:21:29;4.60;;;2.17;;
3085;SDS011;52812;48.960;9.108;2023-02-20T13:27:04;2.37;;;1.93;;
3085;SDS011;52812;48.960;9.108;2023-02-20T13:30:17;5.40;;;2.00;;
3085;SDS011;52812;48.960;9.108;2023-02-20T13:32:26;4.77;;;2.20;;
3085;SDS011;52812;48.960;9.108;2023-02-20T13:38:08;3.83;;;1.67;;
3085;SDS011;52812;48.960;9.108;2023-02-20T13:40:36;2.43;;;2.23;;
3085;SDS011;52812;48.960;9.108;2023-02-20T13:53:38;3.60;;;1.80;;
3085;SDS011;52812;48.960;9.108;2023-02-20T13:56:16;2.90;;;1.70;;
3085;SDS011;52812;48.960;9.108;2023-02-20T13:58:50;1.67;;;1.53;;
3085;SDS011;52812;48.960;9.108;2023-02-20T14:01:18;2.97;;;1.87;;
3085;SDS011;52812;48.960;9.108;2023-02-20T14:03:44;2.93;;;1.80;;
3085;SDS011;52812;48.960;9.108;2023-02-20T14:06:11;3.80;;;1.90;;
3085;SDS011;52812;48.960;9.108;2023-02-20T14:08:37;2.23;;;1.80;;
3085;SDS011;52812;48.960;9.108;2023-02-20T14:13:32;2.50;;;1.70;;
3085;SDS011;52812;48.960;9.108;2023-02-20T14:15:59;2.80;;;2.20;;
3085;SDS011;52812;48.960;9.108;2023-02-20T14:18:32;3.87;;;1.80;;
3085;SDS011;52812;48.960;9.108;2023-02-20T14:21:10;2.87;;;2.00;;
3085;SDS011;52812;48.960;9.108;2023-02-20T14:23:41;2.63;;;2.30;;
3085;SDS011;52812;48.960;9.108;2023-02-20T14:26:24;3.30;;;2.03;;
3085;SDS011;52812;48.960;9.108;2023-02-20T14:28:55;3.43;;;1.77;;
3085;SDS011;52812;48.960;9.108;2023-02-20T14:31:25;4.17;;;1.93;;
3085;SDS011;52812;48.960;9.108;2023-02-20T14:33:58;2.63;;;1.77;;
3085;SDS011;52812;48.960;9.108;2023-02-20T14:36:28;2.97;;;1.90;;
3085;SDS011;52812;48.960;9.108;2023-02-20T14:39:06;2.33;;;1.97;;
3085;SDS011;52812;48.960;9.108;2023-02-20T14:41:49;1.63;;;1.53;;
3085;SDS011;52812;48.960;9.108;2023-02-20T14:44:21;2.20;;;1.80;;
3085;SDS011;52812;48.960;9.108;2023-02-20T14:46:49;2.00;;;1.80;;
3085;SDS011;52812;48.960;9.108;2023-02-20T14:49:27;3.77;;;1.77;;
3085;SDS011;52812;48.960;9.108;2023-02-20T14:54:37;3.10;;;1.80;;
3085;SDS011;52812;48.960;9.108;2023-02-20T14:57:05;1.90;;;1.60;;
3085;SDS011;52812;48.960;9.108;2023-02-20T14:59:32;1.60;;;1.50;;
3085;SDS011;52812;48.960;9.108;2023-02-20T15:02:16;3.73;;;1.90;;
3085;SDS011;52812;48.960;9.108;2023-02-20T15:04:54;1.73;;;1.63;;
3085;SDS011;52812;48.960;9.108;2023-02-20T15:07:31;2.73;;;1.80;;
3085;SDS011;52812;48.960;9.108;2023-02-20T15:09:59;2.10;;;1.90;;
3085;SDS011;52812;48.960;9.108;2023-02-20T15:12:31;3.97;;;2.47;;
3085;SDS011;52812;48.960;9.108;2023-02-20T15:15:01;3.40;;;2.10;;
3085;SDS011;52812;48.960;9.108;2023-02-20T15:17:36;2.40;;;2.03;;
3085;SDS011;52812;48.960;9.108;2023-02-20T15:20:19;2.97;;;2.03;;
3085;SDS011;52812;48.960;9.108;2023-02-20T15:22:45;2.93;;;1.90;;
3085;SDS011;52812;48.960;9.108;2023-02-20T15:25:29;2.87;;;2.20;;
3085;SDS011;52812;48.960;9.108;2023-02-20T15:28:03;2.80;;;1.87;;
3085;SDS011;52812;48.960;9.108;2023-02-20T15:30:29;4.40;;;2.30;;
3085;SDS011;52812;48.960;9.108;2023-02-20T15:32:54;4.90;;;2.60;;
3085;SDS011;52812;48.960;9.108;2023-02-20T15:35:23;4.80;;;2.20;;
3085;SDS011;52812;48.960;9.108;2023-02-20T15:37:53;5.10;;;2.23;;
3085;SDS011;52812;48.960;9.108;2023-02-20T15:40:27;3.30;;;2.20;;
3085;SDS011;52812;48.960;9.108;2023-02-20T15:42:55;2.40;;;2.17;;
3085;SDS011;52812;48.960;9.108;2023-02-20T15:45:22;4.43;;;2.23;;
3085;SDS011;52812;48.960;9.108;2023-02-20T15:47:48;3.43;;;2.00;;
3085;SDS011;52812;48.960;9.108;2023-02-20T15:50:13;7.57;;;2.67;;
3085;SDS011;52812;48.960;9.108;2023-02-20T15:52:39;4.30;;;2.53;;
3085;SDS011;52812;48.960;9.108;2023-02-20T15:55:05;4.70;;;1.97;;
3085;SDS011;52812;48.960;9.108;2023-02-20T15:57:31;2.20;;;2.00;;
3085;SDS011;52812;48.960;9.108;2023-02-20T15:59:56;2.80;;;1.97;;
3085;SDS011;52812;48.960;9.108;2023-02-20T16:02:22;3.83;;;2.67;;
3085;SDS011;52812;48.960;9.108;2023-02-20T16:04:48;3.20;;;2.50;;
3085;SDS011;52812;48.960;9.108;2023-02-20T16:07:15;3.90;;;2.40;;
3085;SDS011;52812;48.960;9.108;2023-02-20T16:09:42;3.50;;;2.60;;
3085;SDS011;52812;48.960;9.108;2023-02-20T16:12:15;6.50;;;2.20;;
3085;SDS011;52812;48.960;9.108;2023-02-20T16:14:44;5.37;;;3.10;;
3085;SDS011;52812;48.960;9.108;2023-02-20T16:17:12;3.53;;;2.50;;
3085;SDS011;52812;48.960;9.108;2023-02-20T16:19:44;3.60;;;2.87;;
3085;SDS011;52812;48.960;9.108;2023-02-20T16:22:09;7.27;;;2.70;;
3085;SDS011;52812;48.960;9.108;2023-02-20T16:24:35;4.13;;;2.93;;
3085;SDS011;52812;48.960;9.108;2023-02-20T16:27:02;4.30;;;2.60;;
3085;SDS011;52812;48.960;9.108;2023-02-20T16:29:31;3.20;;;2.60;;
3085;SDS011;52812;48.960;9.108;2023-02-20T16:34:26;3.03;;;2.67;;
3085;SDS011;52812;48.960;9.108;2023-02-20T16:36:55;4.33;;;2.90;;
3085;SDS011;52812;48.960;9.108;2023-02-20T16:39:21;4.40;;;2.50;;
3085;SDS011;52812;48.960;9.108;2023-02-20T16:41:46;4.17;;;2.67;;
3085;SDS011;52812;48.960;9.108;2023-02-20T16:44:22;5.27;;;3.03;;
3085;SDS011;52812;48.960;9.108;2023-02-20T16:47:14;4.00;;;2.53;;
3085;SDS011;52812;48.960;9.108;2023-02-20T16:49:42;4.93;;;3.17;;
3085;SDS011;52812;48.960;9.108;2023-02-20T16:52:20;4.10;;;2.60;;
3085;SDS011;52812;48.960;9.108;2023-02-20T16:54:49;5.00;;;3.00;;
3085;SDS011;52812;48.960;9.108;2023-02-20T16:57:15;3.80;;;3.00;;
3085;SDS011;52812;48.960;9.108;2023-02-20T16:59:41;3.87;;;3.03;;
3085;SDS011;52812;48.960;9.108;2023-02-20T17:02:09;7.47;;;3.20;;
3085;SDS011;52812;48.960;9.108;2023-02-20T17:04:39;3.33;;;2.33;;
3085;SDS011;52812;48.960;9.108;2023-02-20T17:07:04;6.03;;;3.63;;
3085;SDS011;52812;48.960;9.108;2023-02-20T17:09:30;4.90;;;3.30;;
3085;SDS011;52812;48.960;9.108;2023-02-20T17:11:56;3.60;;;3.07;;
3085;SDS011;52812;48.960;9.108;2023-02-20T17:14:21;6.50;;;3.20;;
3085;SDS011;52812;48.960;9.108;2023-02-20T17:16:47;7.73;;;3.80;;